Terminal Aerodrome Forecast
Issued by NWS

Home | Current Version | Previous Version | Text Only | Print | Product List | Glossary On
Versions: 1 2 3 4 5 6 7 8 9 10 11 12 13 14 15 16 17 18 19 20 21
000
FTUS41 KCAR 201120
TAFPQI
TAF
KPQI 201120Z 2012/2112 33009G16KT P6SM SCT035
      TEMPO 2012/2015 6SM -SHSN OVC025
     FM201500 33013G21KT P6SM BKN035
     FM201800 33013G21KT P6SM SCT040
     FM210000 33009KT P6SM FEW100
     FM210500 VRB03KT P6SM SKC=

USA.gov is the U.S. government's official web portal to all federal, state and local government web resources and services.